Terminal Aerodrome Forecast
Issued by NWS

Home | Current Version | Previous Version | Graphics & Text | Print | Product List | Glossary On
Versions: 1 2 3 4 5 6 7 8 9 10 11 12 13
000
FTUS43 KICT 241720
TAFSLN
TAF
KSLN 241720Z 2418/2518 28011KT P6SM SKC
     FM241900 26015G22KT P6SM SKC
     FM250000 29013KT P6SM BKN100
     FM250600 32023G30KT P6SM SCT250
     FM251500 32027G35KT P6SM SCT250=

USA.gov is the U.S. government's official web portal to all federal, state and local government web resources and services.